createdAt,value
2018-11-02T00:00:17.018Z,87.80
2018-11-02T00:02:45.190Z,87.80
2018-11-02T00:05:13.458Z,87.80
2018-11-02T00:07:41.659Z,87.70
2018-11-02T00:10:09.876Z,87.70
2018-11-02T00:12:38.032Z,87.50
2018-11-02T00:15:06.694Z,87.70
2018-11-02T00:17:36.308Z,87.60
2018-11-02T00:20:05.486Z,89.30
2018-11-02T00:22:33.772Z,89.10
2018-11-02T00:25:02.804Z,87.20
2018-11-02T00:27:37.105Z,88.60
2018-11-02T00:30:06.781Z,88.40
2018-11-02T00:32:35.001Z,87.20
2018-11-02T00:35:03.284Z,88.50
2018-11-02T00:37:31.476Z,89.30
2018-11-02T00:39:59.755Z,88.30
2018-11-02T00:42:28.210Z,89.20
2018-11-02T00:44:56.450Z,89.50
2018-11-02T00:47:24.660Z,89.20
2018-11-02T00:49:52.881Z,89.30
2018-11-02T00:52:21.029Z,90.20
2018-11-02T00:54:49.397Z,90.00
2018-11-02T00:57:17.595Z,90.20
2018-11-02T00:59:45.853Z,90.60
2018-11-02T01:02:14.045Z,90.60
2018-11-02T01:04:42.322Z,89.80
2018-11-02T01:07:10.519Z,90.80
2018-11-02T01:09:38.802Z,91.00
2018-11-02T01:12:07.055Z,89.90
2018-11-02T01:14:35.224Z,88.50
2018-11-02T01:17:03.447Z,89.30
2018-11-02T01:19:32.468Z,89.50
2018-11-02T01:22:02.627Z,89.90
2018-11-02T01:24:31.016Z,87.70
2018-11-02T01:26:59.199Z,89.20
2018-11-02T01:29:45.942Z,88.70
2018-11-02T01:32:14.163Z,88.40
2018-11-02T01:34:42.424Z,87.90
2018-11-02T01:37:10.609Z,88.80
2018-11-02T01:39:38.859Z,88.00
2018-11-02T01:42:07.083Z,88.90
2018-11-02T01:44:35.428Z,90.00
2018-11-02T01:47:03.686Z,90.30
2018-11-02T01:49:36.941Z,89.70
2018-11-02T01:52:05.482Z,90.70
2018-11-02T01:54:33.732Z,90.50
2018-11-02T01:57:01.977Z,90.60
2018-11-02T01:59:30.214Z,90.00
2018-11-02T02:01:58.530Z,89.60
2018-11-02T02:04:26.830Z,89.90
2018-11-02T02:06:55.070Z,90.20
2018-11-02T02:09:32.793Z,89.30
2018-11-02T02:12:01.015Z,90.00
2018-11-02T02:14:29.320Z,89.40
2018-11-02T02:16:57.495Z,88.30
2018-11-02T02:19:25.684Z,88.40
2018-11-02T02:21:54.063Z,88.50
2018-11-02T02:24:22.264Z,88.30
2018-11-02T02:26:50.541Z,88.20
2018-11-02T02:29:18.764Z,87.20
2018-11-02T02:31:46.917Z,87.10
2018-11-02T02:34:15.001Z,88.20
2018-11-02T02:36:44.283Z,87.20
2018-11-02T02:39:12.410Z,88.80
2018-11-02T02:41:40.598Z,88.90
2018-11-02T02:44:08.799Z,87.20
2018-11-02T02:46:37.214Z,87.10
2018-11-02T02:49:06.114Z,87.00
2018-11-02T02:51:34.247Z,88.00
2018-11-02T02:54:02.645Z,88.40
2018-11-02T02:56:30.934Z,88.30
2018-11-02T02:59:04.423Z,87.90
2018-11-02T03:01:32.643Z,89.40
2018-11-02T03:04:00.839Z,89.60
2018-11-02T03:06:29.636Z,90.10
2018-11-02T03:08:57.822Z,90.40
2018-11-02T03:11:26.067Z,91.20
2018-11-02T03:13:54.252Z,90.90
2018-11-02T03:16:22.395Z,90.90
2018-11-02T03:18:51.363Z,90.90
2018-11-02T03:21:19.386Z,90.90
2018-11-02T03:23:47.492Z,91.40
2018-11-02T03:26:15.699Z,91.00
2018-11-02T03:28:43.933Z,91.00
2018-11-02T03:31:12.140Z,90.90
2018-11-02T03:33:40.384Z,90.90
2018-11-02T03:36:09.590Z,90.50
2018-11-02T03:38:43.915Z,90.00
2018-11-02T03:41:12.119Z,89.50
2018-11-02T03:43:40.363Z,89.00
2018-11-02T03:46:08.564Z,88.90
2018-11-02T03:48:36.731Z,88.60
2018-11-02T03:51:05.104Z,87.70
2018-11-02T03:53:33.278Z,87.70
2018-11-02T03:56:02.508Z,87.60
2018-11-02T03:58:40.224Z,87.60
2018-11-02T04:01:08.419Z,87.80
2018-11-02T04:03:37.301Z,87.80
2018-11-02T04:06:06.908Z,87.90
2018-11-02T04:08:35.139Z,87.10
2018-11-02T04:11:03.339Z,87.80
2018-11-02T04:13:31.528Z,86.60
2018-11-02T04:15:59.674Z,85.30
2018-11-02T04:18:27.913Z,85.70
2018-11-02T04:20:56.160Z,87.50
2018-11-02T04:23:24.290Z,87.30
2018-11-02T04:25:52.517Z,87.20
2018-11-02T04:28:20.758Z,87.10
2018-11-02T04:30:49.001Z,87.10
2018-11-02T04:33:17.110Z,87.10
2018-11-02T04:35:45.389Z,87.00
2018-11-02T04:38:13.564Z,86.90
2018-11-02T04:40:43.020Z,87.60
2018-11-02T04:43:11.133Z,89.20
2018-11-02T04:45:40.208Z,88.40
2018-11-02T04:48:10.066Z,88.60
2018-11-02T04:50:38.899Z,88.40
2018-11-02T04:53:07.167Z,89.50
2018-11-02T04:55:35.387Z,90.00
2018-11-02T04:58:03.633Z,90.60
2018-11-02T05:00:32.162Z,90.40
2018-11-02T05:03:01.168Z,90.70
2018-11-02T05:05:29.293Z,90.60
2018-11-02T05:07:58.218Z,90.30
2018-11-02T05:10:27.150Z,89.00
2018-11-02T05:12:56.190Z,89.00
2018-11-02T05:15:24.368Z,88.70
2018-11-02T05:17:52.670Z,89.10
2018-11-02T05:20:20.846Z,90.10
2018-11-02T05:22:49.728Z,89.90
2018-11-02T05:25:17.948Z,89.00
2018-11-02T05:27:46.145Z,89.10
2018-11-02T05:30:14.386Z,88.40
2018-11-02T05:32:42.594Z,87.70
2018-11-02T05:35:10.829Z,87.20
2018-11-02T05:37:38.970Z,87.80
2018-11-02T05:40:07.827Z,88.10
2018-11-02T05:42:36.157Z,88.00
2018-11-02T05:45:05.530Z,86.30
2018-11-02T05:47:33.995Z,86.50
2018-11-02T05:50:02.311Z,88.20
2018-11-02T05:52:31.788Z,90.00
2018-11-02T05:55:00.166Z,90.50
2018-11-02T05:57:28.395Z,90.50
2018-11-02T05:59:56.596Z,90.20
2018-11-02T06:02:24.762Z,90.20
2018-11-02T06:04:52.859Z,89.80
2018-11-02T06:07:21.172Z,88.20
2018-11-02T06:09:49.341Z,88.20
2018-11-02T06:12:17.645Z,87.80
2018-11-02T06:14:45.895Z,88.50
2018-11-02T06:17:14.023Z,88.30
2018-11-02T06:19:42.405Z,88.60
2018-11-02T06:22:10.629Z,88.20
2018-11-02T06:24:38.827Z,88.80
2018-11-02T06:27:06.991Z,88.00
2018-11-02T06:29:35.256Z,88.50
2018-11-02T06:32:03.502Z,86.40
2018-11-02T06:34:31.693Z,87.30
2018-11-02T06:36:59.855Z,86.40
2018-11-02T06:39:28.104Z,85.50
2018-11-02T06:41:56.665Z,86.20
2018-11-02T06:44:24.835Z,86.20
2018-11-02T06:46:53.094Z,86.10
2018-11-02T06:49:21.277Z,86.10
2018-11-02T06:51:49.462Z,86.90
2018-11-02T06:54:17.660Z,88.30
2018-11-02T06:56:45.928Z,87.70
2018-11-02T06:59:14.094Z,88.00
2018-11-02T07:01:42.433Z,88.10
2018-11-02T07:04:10.944Z,87.70
2018-11-02T07:06:39.184Z,85.50
2018-11-02T07:09:09.600Z,86.20
2018-11-02T07:11:37.888Z,84.80
2018-11-02T07:14:06.578Z,85.90
2018-11-02T07:16:34.769Z,85.90
2018-11-02T07:19:03.040Z,84.70
2018-11-02T07:21:31.217Z,85.30
2018-11-02T07:23:59.446Z,87.10
2018-11-02T07:26:27.797Z,86.50
2018-11-02T07:28:56.016Z,84.20
2018-11-02T07:31:24.175Z,81.90
2018-11-02T07:33:52.316Z,81.40
2018-11-02T07:36:20.527Z,79.50
2018-11-02T07:38:48.705Z,80.60
2018-11-02T07:41:16.857Z,79.20
2018-11-02T07:43:44.967Z,80.10
2018-11-02T07:46:13.125Z,80.20
2018-11-02T07:48:41.468Z,82.50
2018-11-02T07:51:09.722Z,82.10
2018-11-02T07:53:37.959Z,81.50
2018-11-02T07:56:06.213Z,80.60
2018-11-02T07:58:39.807Z,80.70
2018-11-02T08:01:08.198Z,79.70
2018-11-02T08:03:36.344Z,77.60
2018-11-02T08:06:04.705Z,77.40
2018-11-02T08:08:32.969Z,78.30
2018-11-02T08:11:01.146Z,75.80
2018-11-02T08:13:29.416Z,74.40
2018-11-02T08:15:57.682Z,73.60
2018-11-02T08:18:25.949Z,72.50
2018-11-02T08:20:54.107Z,73.80
2018-11-02T08:23:22.211Z,73.70
2018-11-02T08:25:50.505Z,72.40
2018-11-02T08:28:24.010Z,70.50
2018-11-02T08:30:52.788Z,70.30
2018-11-02T08:33:20.954Z,70.10
2018-11-02T08:35:49.243Z,69.10
2018-11-02T08:38:17.500Z,69.20
2018-11-02T08:40:45.692Z,69.40
2018-11-02T08:43:13.896Z,69.50
2018-11-02T08:45:42.738Z,69.30
2018-11-02T08:48:11.150Z,69.30
2018-11-02T08:50:39.363Z,69.30
2018-11-02T08:53:07.490Z,69.90
2018-11-02T08:55:35.721Z,69.10
2018-11-02T08:58:09.387Z,69.90
2018-11-02T09:00:37.303Z,69.80
2018-11-02T09:03:05.605Z,69.50
2018-11-02T09:05:33.811Z,68.60
2018-11-02T09:08:06.969Z,67.00
2018-11-02T09:10:35.134Z,65.00
2018-11-02T09:13:03.429Z,65.00
2018-11-02T09:15:31.633Z,64.90
2018-11-02T09:18:00.042Z,63.50
2018-11-02T09:20:28.074Z,63.70
2018-11-02T09:22:56.865Z,63.40
2018-11-02T09:25:25.047Z,62.10
2018-11-02T09:27:53.258Z,63.10
2018-11-02T09:30:21.406Z,63.20
2018-11-02T09:32:49.839Z,62.80
2018-11-02T09:35:18.015Z,63.90
2018-11-02T09:37:51.288Z,65.90
2018-11-02T09:40:19.490Z,66.80
2018-11-02T09:42:47.774Z,68.30
2018-11-02T09:45:15.816Z,68.70
2018-11-02T09:47:44.277Z,70.50
2018-11-02T09:50:12.753Z,71.50
2018-11-02T09:52:41.032Z,73.50
2018-11-02T09:55:11.837Z,73.90
2018-11-02T09:57:40.210Z,74.80
2018-11-02T10:00:09.843Z,74.60
2018-11-02T10:02:38.098Z,75.70
2018-11-02T10:05:08.113Z,75.00
2018-11-02T10:07:37.316Z,77.30
2018-11-02T10:10:07.330Z,75.20
2018-11-02T10:12:35.630Z,75.90
2018-11-02T10:15:04.386Z,73.00
2018-11-02T10:17:33.083Z,73.70
2018-11-02T10:20:01.326Z,74.00
2018-11-02T10:22:29.554Z,74.10
2018-11-02T10:24:57.775Z,74.10
2018-11-02T10:27:26.201Z,72.80
2018-11-02T10:29:54.535Z,72.40
2018-11-02T10:32:22.855Z,72.50
2018-11-02T10:34:51.705Z,72.40
2018-11-02T10:37:19.952Z,70.90
2018-11-02T10:39:48.538Z,71.00
2018-11-02T10:42:16.941Z,71.10
2018-11-02T10:44:45.813Z,71.20
2018-11-02T10:47:14.383Z,70.80
2018-11-02T10:49:42.860Z,71.50
2018-11-02T10:52:11.113Z,68.80
2018-11-02T10:54:39.389Z,67.90
2018-11-02T10:57:07.581Z,66.60
2018-11-02T10:59:36.004Z,58.50
2018-11-02T11:02:06.692Z,54.70
2018-11-02T11:04:35.385Z,48.20
2018-11-02T11:07:03.752Z,46.10
2018-11-02T11:09:32.013Z,43.40
2018-11-02T11:12:00.334Z,40.30
2018-11-02T11:14:28.847Z,37.10
2018-11-02T11:16:57.088Z,35.80
2018-11-02T11:19:25.496Z,33.40
2018-11-02T11:21:53.808Z,32.10
2018-11-02T11:24:22.992Z,30.80
2018-11-02T11:26:51.266Z,30.10
2018-11-02T11:29:19.751Z,30.90
2018-11-02T11:31:47.982Z,32.40
2018-11-02T11:34:16.252Z,33.20
2018-11-02T11:36:44.552Z,33.20
2018-11-02T11:39:14.400Z,36.50
2018-11-02T11:41:43.657Z,36.40
2018-11-02T11:44:13.306Z,35.80
2018-11-02T11:46:41.502Z,38.30
2018-11-02T11:49:10.135Z,40.50
2018-11-02T11:51:38.393Z,42.80
2018-11-02T11:54:06.582Z,44.10
2018-11-02T11:56:34.721Z,44.80
2018-11-02T11:59:04.305Z,46.80
2018-11-02T12:01:32.607Z,47.90
2018-11-02T12:04:00.882Z,48.70
2018-11-02T12:06:29.082Z,49.60
2018-11-02T12:08:57.257Z,51.40
2018-11-02T12:11:25.588Z,51.90
2018-11-02T12:13:53.791Z,51.10
2018-11-02T12:16:21.987Z,51.00
2018-11-02T12:18:50.420Z,53.00
2018-11-02T12:21:18.705Z,52.90
2018-11-02T12:23:46.892Z,53.40
2018-11-02T12:26:15.141Z,49.10
2018-11-02T12:28:44.539Z,48.50
2018-11-02T12:31:15.721Z,47.90
2018-11-02T12:33:45.229Z,48.80
2018-11-02T12:36:14.950Z,48.80
2018-11-02T12:38:45.062Z,50.40
2018-11-02T12:41:15.078Z,48.20
2018-11-02T12:43:44.910Z,48.80
2018-11-02T12:46:14.614Z,51.00
2018-11-02T12:48:51.710Z,53.40
2018-11-02T12:51:21.721Z,50.90
2018-11-02T12:53:51.941Z,54.40
2018-11-02T12:56:21.587Z,54.30
2018-11-02T12:58:57.766Z,56.50
2018-11-02T13:01:29.166Z,53.10
2018-11-02T13:03:59.027Z,56.90
2018-11-02T13:06:31.367Z,54.70
2018-11-02T13:09:10.505Z,55.00
2018-11-02T13:11:41.523Z,51.30
2018-11-02T13:14:11.914Z,50.10
2018-11-02T13:16:51.369Z,47.20
2018-11-02T13:19:21.936Z,46.70
2018-11-02T13:21:52.328Z,43.80
2018-11-02T13:24:41.252Z,43.10
2018-11-02T13:27:12.263Z,45.00
2018-11-02T13:29:43.156Z,43.50
2018-11-02T13:32:14.911Z,43.50
2018-11-02T13:34:46.257Z,42.00
2018-11-02T13:37:23.134Z,41.50
2018-11-02T13:39:53.070Z,37.60
2018-11-02T13:42:24.425Z,37.70
2018-11-02T13:44:55.636Z,38.60
2018-11-02T13:47:47.752Z,39.10
2018-11-02T13:56:23.230Z,38.70
2018-11-02T14:02:00.268Z,35.20
2018-11-02T14:10:58.704Z,35.40
2018-11-02T14:13:34.216Z,37.20
2018-11-02T14:19:03.140Z,37.80
2018-11-02T14:21:31.447Z,38.10
2018-11-02T14:23:59.758Z,38.70
2018-11-02T14:26:28.088Z,39.10
2018-11-02T14:28:57.096Z,41.40
2018-11-02T14:31:25.484Z,41.40
2018-11-02T14:33:53.848Z,43.00
2018-11-02T14:36:23.074Z,43.70
2018-11-02T14:38:51.437Z,43.50
2018-11-02T14:41:21.351Z,44.70
2018-11-02T14:43:49.882Z,44.10
2018-11-02T14:46:18.422Z,46.40
2018-11-02T14:48:47.698Z,48.90
2018-11-02T14:51:16.469Z,49.60
2018-11-02T14:53:45.022Z,50.30
2018-11-02T14:56:13.960Z,51.70
2018-11-02T14:58:42.186Z,52.40
2018-11-02T15:01:11.268Z,52.30
2018-11-02T15:03:39.697Z,54.00
2018-11-02T15:06:08.056Z,54.60
2018-11-02T15:08:36.340Z,54.80
2018-11-02T15:11:05.831Z,54.90
2018-11-02T15:13:34.237Z,56.80
2018-11-02T15:16:02.605Z,57.10
2018-11-02T15:18:30.960Z,58.00
2018-11-02T15:20:59.881Z,58.30
2018-11-02T15:23:29.120Z,58.80
2018-11-02T15:25:57.468Z,59.40
2018-11-02T15:28:25.842Z,60.80
2018-11-02T15:30:54.407Z,59.40
2018-11-02T15:33:22.824Z,60.80
2018-11-02T15:35:51.144Z,60.70
2018-11-02T15:38:19.424Z,61.20
2018-11-02T15:40:47.828Z,60.90
2018-11-02T15:43:16.512Z,61.80
2018-11-02T15:45:45.631Z,61.90
2018-11-02T15:48:13.861Z,62.20
2018-11-02T15:50:42.124Z,64.00
2018-11-02T15:53:13.132Z,62.80
2018-11-02T15:55:41.255Z,64.00
2018-11-02T15:58:09.451Z,65.00
2018-11-02T16:00:38.012Z,64.00
2018-11-02T16:03:06.262Z,65.50
2018-11-02T16:05:35.122Z,65.40
2018-11-02T16:08:03.491Z,66.60
2018-11-02T16:10:32.970Z,65.80
2018-11-02T16:13:01.136Z,66.60
2018-11-02T16:15:29.314Z,67.20
2018-11-02T16:17:57.489Z,68.10
2018-11-02T16:20:25.704Z,69.30
2018-11-02T16:22:53.894Z,71.00
2018-11-02T16:25:22.106Z,70.40
2018-11-02T16:27:50.283Z,70.60
2018-11-02T16:30:18.438Z,70.90
2018-11-02T16:32:46.647Z,70.80
2018-11-02T16:35:14.818Z,70.80
2018-11-02T16:37:43.017Z,70.70
2018-11-02T16:40:13.328Z,70.60
2018-11-02T16:42:51.206Z,70.60
2018-11-02T16:45:19.433Z,70.60
2018-11-02T16:47:47.691Z,71.60
2018-11-02T16:50:15.926Z,72.00
2018-11-02T16:52:45.564Z,72.10
2018-11-02T16:55:13.789Z,73.00
2018-11-02T16:57:42.116Z,73.30
2018-11-02T17:00:14.247Z,73.30
2018-11-02T17:02:43.051Z,73.40
2018-11-02T17:05:11.266Z,73.20
2018-11-02T17:07:40.036Z,73.10
2018-11-02T17:10:09.554Z,73.20
2018-11-02T17:12:38.388Z,73.60
2018-11-02T17:15:07.126Z,73.30
2018-11-02T17:17:35.586Z,72.40
2018-11-02T17:20:06.111Z,72.40
2018-11-02T17:22:34.277Z,73.10
2018-11-02T17:25:02.500Z,74.00
2018-11-02T17:27:30.651Z,74.00
2018-11-02T17:29:58.805Z,75.60
2018-11-02T17:32:27.041Z,75.50
2018-11-02T17:34:55.224Z,75.40
2018-11-02T17:37:23.464Z,76.40
2018-11-02T17:39:51.564Z,76.40
2018-11-02T17:42:20.013Z,76.60
2018-11-02T17:44:49.135Z,77.20
2018-11-02T17:47:17.962Z,77.20
2018-11-02T17:49:46.068Z,76.70
2018-11-02T17:52:14.698Z,76.00
2018-11-02T17:54:42.906Z,76.50
2018-11-02T17:57:11.089Z,76.20
2018-11-02T17:59:39.243Z,76.00
2018-11-02T18:02:07.552Z,75.80
2018-11-02T18:04:35.765Z,76.00
2018-11-02T18:07:04.636Z,75.70
2018-11-02T18:09:32.879Z,76.40
2018-11-02T18:12:01.475Z,76.80
2018-11-02T18:14:29.926Z,76.30
2018-11-02T18:16:58.082Z,75.70
2018-11-02T18:19:26.843Z,76.40
2018-11-02T18:21:55.518Z,75.50
2018-11-02T18:24:23.961Z,75.60
2018-11-02T18:26:52.325Z,75.60
2018-11-02T18:29:20.551Z,75.60
2018-11-02T18:31:48.735Z,75.60
2018-11-02T18:34:17.861Z,75.60
2018-11-02T18:36:47.148Z,75.90
2018-11-02T18:39:15.954Z,77.50
2018-11-02T18:41:44.625Z,76.50
2018-11-02T18:44:13.063Z,76.40
2018-11-02T18:46:41.654Z,77.70
2018-11-02T18:49:10.777Z,77.60
2018-11-02T18:51:40.903Z,78.40
2018-11-02T18:54:10.247Z,78.60
2018-11-02T18:56:38.486Z,78.00
2018-11-02T18:59:08.025Z,77.60
2018-11-02T19:01:36.371Z,77.10
2018-11-02T19:04:05.681Z,78.40
2018-11-02T19:06:33.982Z,77.90
2018-11-02T19:09:02.376Z,77.20
2018-11-02T19:11:30.755Z,76.70
2018-11-02T19:13:59.051Z,76.90
2018-11-02T19:16:27.340Z,77.40
2018-11-02T19:18:56.252Z,78.20
2018-11-02T19:21:24.929Z,78.80
2018-11-02T19:23:53.226Z,78.80
2018-11-02T19:26:21.710Z,79.30
2018-11-02T19:28:49.933Z,79.30
2018-11-02T19:31:18.289Z,78.90
2018-11-02T19:33:46.788Z,78.40
2018-11-02T19:36:15.146Z,77.90
2018-11-02T19:38:43.423Z,78.00
2018-11-02T19:41:11.572Z,79.30
2018-11-02T19:43:39.889Z,79.90
2018-11-02T19:46:08.115Z,80.50
2018-11-02T19:48:36.474Z,80.30
2018-11-02T19:51:05.124Z,80.30
2018-11-02T19:53:33.400Z,80.30
2018-11-02T19:56:01.542Z,80.30
2018-11-02T19:58:29.768Z,80.20
2018-11-02T20:00:58.010Z,80.80
2018-11-02T20:03:26.196Z,80.40
2018-11-02T20:05:54.358Z,80.30
2018-11-02T20:08:23.765Z,80.30
2018-11-02T20:10:57.145Z,80.30
2018-11-02T20:13:25.400Z,80.30
2018-11-02T20:15:53.638Z,80.30
2018-11-02T20:18:22.626Z,81.30
2018-11-02T20:20:50.823Z,80.80
2018-11-02T20:23:18.996Z,80.40
2018-11-02T20:25:47.210Z,80.40
2018-11-02T20:28:15.381Z,80.40
2018-11-02T20:30:43.699Z,80.40
2018-11-02T20:33:11.922Z,81.30
2018-11-02T20:35:40.102Z,82.20
2018-11-02T20:38:08.315Z,83.10
2018-11-02T20:40:36.556Z,82.70
2018-11-02T20:43:04.774Z,82.60
2018-11-02T20:45:32.998Z,82.90
2018-11-02T20:48:01.178Z,83.00
2018-11-02T20:50:29.353Z,82.90
2018-11-02T20:52:57.574Z,83.40
2018-11-02T20:55:25.822Z,82.50
2018-11-02T20:57:53.968Z,81.50
2018-11-02T21:00:23.295Z,81.80
2018-11-02T21:02:51.608Z,82.10
2018-11-02T21:05:20.353Z,81.90
2018-11-02T21:07:49.106Z,81.20
2018-11-02T21:10:18.404Z,82.00
2018-11-02T21:12:46.973Z,82.80
2018-11-02T21:15:18.567Z,83.20
2018-11-02T21:17:47.204Z,83.30
2018-11-02T21:20:16.658Z,82.80
2018-11-02T21:22:45.050Z,83.70
2018-11-02T21:25:13.869Z,83.10
2018-11-02T21:27:42.642Z,83.00
2018-11-02T21:30:13.871Z,82.50
2018-11-02T21:32:42.901Z,82.80
2018-11-02T21:35:11.125Z,82.50
2018-11-02T21:37:39.274Z,82.60
2018-11-02T21:40:10.687Z,82.90
2018-11-02T21:42:38.863Z,84.00
2018-11-02T21:45:07.041Z,84.10
2018-11-02T21:47:35.256Z,84.00
2018-11-02T21:50:03.995Z,84.50
2018-11-02T21:52:32.185Z,84.30
2018-11-02T21:55:00.342Z,84.00
2018-11-02T21:57:28.518Z,84.80
2018-11-02T21:59:56.667Z,84.60
2018-11-02T22:02:24.865Z,84.10
2018-11-02T22:04:53.077Z,83.70
2018-11-02T22:07:21.217Z,84.10
2018-11-02T22:09:49.467Z,84.30
2018-11-02T22:12:18.626Z,85.10
2018-11-02T22:14:46.820Z,84.00
2018-11-02T22:17:14.955Z,84.10
2018-11-02T22:19:43.183Z,85.20
2018-11-02T22:22:11.436Z,85.10
2018-11-02T22:24:39.772Z,85.10
2018-11-02T22:27:07.986Z,85.20
2018-11-02T22:29:36.186Z,85.80
2018-11-02T22:32:04.449Z,84.40
2018-11-02T22:34:32.629Z,84.00
2018-11-02T22:37:00.825Z,83.50
2018-11-02T22:39:29.112Z,83.20
2018-11-02T22:41:57.750Z,83.20
2018-11-02T22:44:25.920Z,83.00
2018-11-02T22:46:54.089Z,82.90
2018-11-02T22:49:22.318Z,83.10
2018-11-02T22:51:50.557Z,83.00
2018-11-02T22:54:18.800Z,82.40
2018-11-02T22:56:47.048Z,81.80
2018-11-02T22:59:15.261Z,81.40
2018-11-02T23:01:43.587Z,81.60
2018-11-02T23:04:11.864Z,82.30
2018-11-02T23:06:40.056Z,81.60
2018-11-02T23:09:08.865Z,80.40
2018-11-02T23:11:37.269Z,80.30
2018-11-02T23:14:06.354Z,80.40
2018-11-02T23:16:34.803Z,81.00
2018-11-02T23:19:03.038Z,80.90
2018-11-02T23:21:31.152Z,81.90
2018-11-02T23:23:59.333Z,81.90
2018-11-02T23:26:27.565Z,81.60
2018-11-02T23:28:55.760Z,80.70
2018-11-02T23:31:24.099Z,80.50
2018-11-02T23:33:52.329Z,80.40
2018-11-02T23:36:20.778Z,81.10
2018-11-02T23:38:48.994Z,80.40
2018-11-02T23:41:17.259Z,80.30
2018-11-02T23:43:45.404Z,80.90
2018-11-02T23:46:13.558Z,81.30
2018-11-02T23:48:41.776Z,81.20
2018-11-02T23:51:09.933Z,81.20
2018-11-02T23:53:38.136Z,81.20
2018-11-02T23:56:06.717Z,81.10
2018-11-02T23:58:35.470Z,80.30
